sensor_id;sensor_type;location;lat;lon;timestamp;P1;durP1;ratioP1;P2;durP2;ratioP2
26953;SDS011;14508;50.924;11.600;2023-04-15T00:02:21;15.13;;;7.40;;
26953;SDS011;14508;50.924;11.600;2023-04-15T00:04:49;12.75;;;6.13;;
26953;SDS011;14508;50.924;11.600;2023-04-15T00:07:17;11.18;;;6.65;;
26953;SDS011;14508;50.924;11.600;2023-04-15T00:09:45;11.60;;;7.07;;
26953;SDS011;14508;50.924;11.600;2023-04-15T00:12:12;10.25;;;6.57;;
26953;SDS011;14508;50.924;11.600;2023-04-15T00:14:40;8.50;;;6.10;;
26953;SDS011;14508;50.924;11.600;2023-04-15T00:17:08;12.88;;;7.68;;
26953;SDS011;14508;50.924;11.600;2023-04-15T00:19:37;12.65;;;6.82;;
26953;SDS011;14508;50.924;11.600;2023-04-15T00:22:06;13.32;;;7.43;;
26953;SDS011;14508;50.924;11.600;2023-04-15T00:24:34;10.73;;;6.82;;
26953;SDS011;14508;50.924;11.600;2023-04-15T00:27:02;12.50;;;7.38;;
26953;SDS011;14508;50.924;11.600;2023-04-15T00:29:30;12.07;;;6.65;;
26953;SDS011;14508;50.924;11.600;2023-04-15T00:32:00;14.55;;;7.97;;
26953;SDS011;14508;50.924;11.600;2023-04-15T00:34:29;12.05;;;7.38;;
26953;SDS011;14508;50.924;11.600;2023-04-15T00:36:59;12.90;;;6.65;;
26953;SDS011;14508;50.924;11.600;2023-04-15T00:39:26;14.55;;;6.97;;
26953;SDS011;14508;50.924;11.600;2023-04-15T00:41:54;12.45;;;7.13;;
26953;SDS011;14508;50.924;11.600;2023-04-15T00:44:23;12.02;;;7.25;;
26953;SDS011;14508;50.924;11.600;2023-04-15T00:46:52;11.80;;;7.43;;
26953;SDS011;14508;50.924;11.600;2023-04-15T00:49:20;12.50;;;6.75;;
26953;SDS011;14508;50.924;11.600;2023-04-15T00:51:49;13.57;;;7.13;;
26953;SDS011;14508;50.924;11.600;2023-04-15T00:54:19;16.60;;;7.78;;
26953;SDS011;14508;50.924;11.600;2023-04-15T00:56:47;15.07;;;7.90;;
26953;SDS011;14508;50.924;11.600;2023-04-15T00:59:15;12.75;;;6.97;;
26953;SDS011;14508;50.924;11.600;2023-04-15T01:01:44;12.93;;;6.57;;
26953;SDS011;14508;50.924;11.600;2023-04-15T01:04:14;9.35;;;6.22;;
26953;SDS011;14508;50.924;11.600;2023-04-15T01:06:42;10.48;;;7.10;;
26953;SDS011;14508;50.924;11.600;2023-04-15T01:09:10;11.82;;;6.53;;
26953;SDS011;14508;50.924;11.600;2023-04-15T01:11:40;11.63;;;7.05;;
26953;SDS011;14508;50.924;11.600;2023-04-15T01:14:08;13.98;;;7.70;;
26953;SDS011;14508;50.924;11.600;2023-04-15T01:16:36;10.85;;;6.82;;
26953;SDS011;14508;50.924;11.600;2023-04-15T01:19:06;10.57;;;6.60;;
26953;SDS011;14508;50.924;11.600;2023-04-15T01:21:37;11.88;;;6.95;;
26953;SDS011;14508;50.924;11.600;2023-04-15T01:24:07;11.68;;;6.93;;
26953;SDS011;14508;50.924;11.600;2023-04-15T01:26:38;13.00;;;6.65;;
26953;SDS011;14508;50.924;11.600;2023-04-15T01:29:08;9.13;;;6.40;;
26953;SDS011;14508;50.924;11.600;2023-04-15T01:31:36;11.77;;;6.38;;
26953;SDS011;14508;50.924;11.600;2023-04-15T01:34:04;9.35;;;6.15;;
26953;SDS011;14508;50.924;11.600;2023-04-15T01:36:32;9.30;;;6.07;;
26953;SDS011;14508;50.924;11.600;2023-04-15T01:39:00;13.13;;;6.60;;
26953;SDS011;14508;50.924;11.600;2023-04-15T01:41:28;10.77;;;5.82;;
26953;SDS011;14508;50.924;11.600;2023-04-15T01:43:58;9.57;;;6.05;;
26953;SDS011;14508;50.924;11.600;2023-04-15T01:46:26;13.40;;;5.60;;
26953;SDS011;14508;50.924;11.600;2023-04-15T01:48:53;10.30;;;5.97;;
26953;SDS011;14508;50.924;11.600;2023-04-15T01:51:23;10.05;;;6.05;;
26953;SDS011;14508;50.924;11.600;2023-04-15T01:53:52;10.85;;;6.47;;
26953;SDS011;14508;50.924;11.600;2023-04-15T01:56:22;12.73;;;6.35;;
26953;SDS011;14508;50.924;11.600;2023-04-15T01:58:51;11.70;;;6.10;;
26953;SDS011;14508;50.924;11.600;2023-04-15T02:01:20;11.73;;;5.90;;
26953;SDS011;14508;50.924;11.600;2023-04-15T02:03:49;9.82;;;5.32;;
26953;SDS011;14508;50.924;11.600;2023-04-15T02:06:17;8.25;;;5.95;;
26953;SDS011;14508;50.924;11.600;2023-04-15T02:08:46;10.57;;;6.20;;
26953;SDS011;14508;50.924;11.600;2023-04-15T02:11:14;9.60;;;5.85;;
26953;SDS011;14508;50.924;11.600;2023-04-15T02:13:42;14.68;;;6.45;;
26953;SDS011;14508;50.924;11.600;2023-04-15T02:16:16;10.07;;;5.88;;
26953;SDS011;14508;50.924;11.600;2023-04-15T02:21:14;9.65;;;6.05;;
26953;SDS011;14508;50.924;11.600;2023-04-15T02:23:44;10.65;;;5.97;;
26953;SDS011;14508;50.924;11.600;2023-04-15T02:26:13;10.43;;;6.00;;
26953;SDS011;14508;50.924;11.600;2023-04-15T02:28:41;12.40;;;5.90;;
26953;SDS011;14508;50.924;11.600;2023-04-15T02:31:12;10.30;;;5.97;;
26953;SDS011;14508;50.924;11.600;2023-04-15T02:33:40;11.07;;;5.85;;
26953;SDS011;14508;50.924;11.600;2023-04-15T02:36:09;13.45;;;6.53;;
26953;SDS011;14508;50.924;11.600;2023-04-15T02:38:37;13.93;;;6.05;;
26953;SDS011;14508;50.924;11.600;2023-04-15T02:41:07;12.48;;;6.57;;
26953;SDS011;14508;50.924;11.600;2023-04-15T02:43:36;11.65;;;5.57;;
26953;SDS011;14508;50.924;11.600;2023-04-15T02:46:06;10.75;;;6.90;;
26953;SDS011;14508;50.924;11.600;2023-04-15T02:48:38;10.27;;;6.25;;
26953;SDS011;14508;50.924;11.600;2023-04-15T02:51:12;11.13;;;6.15;;
26953;SDS011;14508;50.924;11.600;2023-04-15T02:53:41;10.23;;;6.32;;
26953;SDS011;14508;50.924;11.600;2023-04-15T02:56:09;10.75;;;6.47;;
26953;SDS011;14508;50.924;11.600;2023-04-15T02:58:37;11.80;;;6.43;;
26953;SDS011;14508;50.924;11.600;2023-04-15T03:01:06;14.68;;;6.05;;
26953;SDS011;14508;50.924;11.600;2023-04-15T03:03:35;9.10;;;5.32;;
26953;SDS011;14508;50.924;11.600;2023-04-15T03:06:03;10.65;;;5.78;;
26953;SDS011;14508;50.924;11.600;2023-04-15T03:08:32;10.57;;;6.25;;
26953;SDS011;14508;50.924;11.600;2023-04-15T03:11:00;8.93;;;5.35;;
26953;SDS011;14508;50.924;11.600;2023-04-15T03:13:28;14.30;;;6.88;;
26953;SDS011;14508;50.924;11.600;2023-04-15T03:15:58;10.73;;;5.40;;
26953;SDS011;14508;50.924;11.600;2023-04-15T03:18:28;8.93;;;5.40;;
26953;SDS011;14508;50.924;11.600;2023-04-15T03:21:00;10.45;;;5.97;;
26953;SDS011;14508;50.924;11.600;2023-04-15T03:23:30;14.82;;;6.43;;
26953;SDS011;14508;50.924;11.600;2023-04-15T03:26:01;9.93;;;5.70;;
26953;SDS011;14508;50.924;11.600;2023-04-15T03:28:31;10.30;;;5.13;;
26953;SDS011;14508;50.924;11.600;2023-04-15T03:31:00;10.00;;;5.40;;
26953;SDS011;14508;50.924;11.600;2023-04-15T03:33:29;12.20;;;6.22;;
26953;SDS011;14508;50.924;11.600;2023-04-15T03:35:57;10.45;;;5.47;;
26953;SDS011;14508;50.924;11.600;2023-04-15T03:38:24;9.35;;;5.40;;
26953;SDS011;14508;50.924;11.600;2023-04-15T03:40:52;9.45;;;5.65;;
26953;SDS011;14508;50.924;11.600;2023-04-15T03:43:22;8.48;;;5.30;;
26953;SDS011;14508;50.924;11.600;2023-04-15T03:45:49;12.55;;;5.45;;
26953;SDS011;14508;50.924;11.600;2023-04-15T03:48:17;10.82;;;6.10;;
26953;SDS011;14508;50.924;11.600;2023-04-15T03:50:45;15.30;;;5.95;;
26953;SDS011;14508;50.924;11.600;2023-04-15T03:53:13;9.93;;;5.72;;
26953;SDS011;14508;50.924;11.600;2023-04-15T03:55:41;11.90;;;6.38;;
26953;SDS011;14508;50.924;11.600;2023-04-15T03:58:10;13.88;;;6.65;;
26953;SDS011;14508;50.924;11.600;2023-04-15T04:00:39;10.32;;;5.72;;
26953;SDS011;14508;50.924;11.600;2023-04-15T04:03:07;12.23;;;6.15;;
26953;SDS011;14508;50.924;11.600;2023-04-15T04:05:35;10.48;;;5.30;;
26953;SDS011;14508;50.924;11.600;2023-04-15T04:08:06;9.15;;;5.72;;
26953;SDS011;14508;50.924;11.600;2023-04-15T04:10:34;8.85;;;5.30;;
26953;SDS011;14508;50.924;11.600;2023-04-15T04:13:02;7.43;;;5.35;;
26953;SDS011;14508;50.924;11.600;2023-04-15T04:15:30;10.18;;;6.03;;
26953;SDS011;14508;50.924;11.600;2023-04-15T04:17:59;13.18;;;6.05;;
26953;SDS011;14508;50.924;11.600;2023-04-15T04:20:27;10.05;;;5.82;;
26953;SDS011;14508;50.924;11.600;2023-04-15T04:22:57;12.05;;;6.45;;
26953;SDS011;14508;50.924;11.600;2023-04-15T04:25:24;14.73;;;6.47;;
26953;SDS011;14508;50.924;11.600;2023-04-15T04:27:52;18.42;;;6.32;;
26953;SDS011;14508;50.924;11.600;2023-04-15T04:30:20;10.27;;;6.00;;
26953;SDS011;14508;50.924;11.600;2023-04-15T04:32:48;10.80;;;6.05;;
26953;SDS011;14508;50.924;11.600;2023-04-15T04:35:18;10.90;;;5.95;;
26953;SDS011;14508;50.924;11.600;2023-04-15T04:37:46;12.13;;;6.10;;
26953;SDS011;14508;50.924;11.600;2023-04-15T04:40:13;12.20;;;6.50;;
26953;SDS011;14508;50.924;11.600;2023-04-15T04:42:41;11.63;;;6.70;;
26953;SDS011;14508;50.924;11.600;2023-04-15T04:45:10;18.52;;;6.80;;
26953;SDS011;14508;50.924;11.600;2023-04-15T04:47:37;12.07;;;6.47;;
26953;SDS011;14508;50.924;11.600;2023-04-15T04:50:06;13.13;;;6.03;;
26953;SDS011;14508;50.924;11.600;2023-04-15T04:52:36;11.05;;;6.35;;
26953;SDS011;14508;50.924;11.600;2023-04-15T04:55:05;13.48;;;6.47;;
26953;SDS011;14508;50.924;11.600;2023-04-15T04:57:33;12.35;;;7.07;;
26953;SDS011;14508;50.924;11.600;2023-04-15T05:00:03;17.95;;;7.97;;
26953;SDS011;14508;50.924;11.600;2023-04-15T05:02:32;13.75;;;7.63;;
26953;SDS011;14508;50.924;11.600;2023-04-15T05:05:00;11.57;;;6.68;;
26953;SDS011;14508;50.924;11.600;2023-04-15T05:07:28;18.13;;;9.13;;
26953;SDS011;14508;50.924;11.600;2023-04-15T05:09:57;14.70;;;7.78;;
26953;SDS011;14508;50.924;11.600;2023-04-15T05:12:25;14.90;;;8.48;;
26953;SDS011;14508;50.924;11.600;2023-04-15T05:14:53;15.13;;;8.05;;
26953;SDS011;14508;50.924;11.600;2023-04-15T05:17:21;15.25;;;8.82;;
26953;SDS011;14508;50.924;11.600;2023-04-15T05:19:48;18.67;;;9.88;;
26953;SDS011;14508;50.924;11.600;2023-04-15T05:22:16;26.58;;;13.15;;
26953;SDS011;14508;50.924;11.600;2023-04-15T05:24:44;17.50;;;9.45;;
26953;SDS011;14508;50.924;11.600;2023-04-15T05:27:13;20.35;;;10.70;;
26953;SDS011;14508;50.924;11.600;2023-04-15T05:29:41;18.10;;;8.73;;
26953;SDS011;14508;50.924;11.600;2023-04-15T05:32:09;14.50;;;8.73;;
26953;SDS011;14508;50.924;11.600;2023-04-15T05:34:37;15.65;;;9.18;;
26953;SDS011;14508;50.924;11.600;2023-04-15T05:37:05;16.38;;;8.68;;
26953;SDS011;14508;50.924;11.600;2023-04-15T05:39:33;18.88;;;9.38;;
26953;SDS011;14508;50.924;11.600;2023-04-15T05:42:00;16.63;;;9.00;;
26953;SDS011;14508;50.924;11.600;2023-04-15T05:44:30;16.70;;;8.73;;
26953;SDS011;14508;50.924;11.600;2023-04-15T05:46:58;18.63;;;9.02;;
26953;SDS011;14508;50.924;11.600;2023-04-15T05:49:26;19.30;;;9.73;;
26953;SDS011;14508;50.924;11.600;2023-04-15T05:51:53;17.45;;;10.00;;
26953;SDS011;14508;50.924;11.600;2023-04-15T05:54:21;20.02;;;10.13;;
26953;SDS011;14508;50.924;11.600;2023-04-15T05:56:49;16.00;;;9.20;;
26953;SDS011;14508;50.924;11.600;2023-04-15T05:59:17;17.27;;;8.68;;
26953;SDS011;14508;50.924;11.600;2023-04-15T06:01:46;19.77;;;9.32;;
26953;SDS011;14508;50.924;11.600;2023-04-15T06:04:14;18.50;;;9.80;;
26953;SDS011;14508;50.924;11.600;2023-04-15T06:06:42;20.40;;;10.73;;
26953;SDS011;14508;50.924;11.600;2023-04-15T06:09:10;21.65;;;10.05;;
26953;SDS011;14508;50.924;11.600;2023-04-15T06:11:38;24.48;;;10.95;;
26953;SDS011;14508;50.924;11.600;2023-04-15T06:14:07;20.58;;;10.88;;
26953;SDS011;14508;50.924;11.600;2023-04-15T06:16:35;21.83;;;11.63;;
26953;SDS011;14508;50.924;11.600;2023-04-15T06:19:04;21.98;;;10.60;;
26953;SDS011;14508;50.924;11.600;2023-04-15T06:21:32;21.85;;;11.80;;
26953;SDS011;14508;50.924;11.600;2023-04-15T06:24:00;25.63;;;11.80;;
26953;SDS011;14508;50.924;11.600;2023-04-15T06:26:29;27.20;;;13.23;;
26953;SDS011;14508;50.924;11.600;2023-04-15T06:28:56;26.30;;;12.23;;
26953;SDS011;14508;50.924;11.600;2023-04-15T06:31:25;25.38;;;12.32;;
26953;SDS011;14508;50.924;11.600;2023-04-15T06:33:53;29.08;;;13.40;;
26953;SDS011;14508;50.924;11.600;2023-04-15T06:36:22;32.83;;;13.95;;
26953;SDS011;14508;50.924;11.600;2023-04-15T06:38:49;29.67;;;14.43;;
26953;SDS011;14508;50.924;11.600;2023-04-15T06:41:17;30.08;;;13.15;;
26953;SDS011;14508;50.924;11.600;2023-04-15T06:43:45;32.42;;;14.10;;
26953;SDS011;14508;50.924;11.600;2023-04-15T06:46:13;32.20;;;15.07;;
26953;SDS011;14508;50.924;11.600;2023-04-15T06:48:41;30.48;;;14.00;;
26953;SDS011;14508;50.924;11.600;2023-04-15T06:51:09;31.10;;;13.63;;
26953;SDS011;14508;50.924;11.600;2023-04-15T06:53:39;28.20;;;12.85;;
26953;SDS011;14508;50.924;11.600;2023-04-15T06:56:09;32.92;;;14.82;;
26953;SDS011;14508;50.924;11.600;2023-04-15T06:58:37;28.40;;;13.98;;
26953;SDS011;14508;50.924;11.600;2023-04-15T07:01:04;31.23;;;14.23;;
26953;SDS011;14508;50.924;11.600;2023-04-15T07:03:32;65.47;;;25.27;;
26953;SDS011;14508;50.924;11.600;2023-04-15T07:06:00;43.17;;;17.65;;
26953;SDS011;14508;50.924;11.600;2023-04-15T07:08:31;28.38;;;13.80;;
26953;SDS011;14508;50.924;11.600;2023-04-15T07:11:01;26.92;;;12.40;;
26953;SDS011;14508;50.924;11.600;2023-04-15T07:13:29;30.42;;;14.98;;
26953;SDS011;14508;50.924;11.600;2023-04-15T07:15:58;32.35;;;15.20;;
26953;SDS011;14508;50.924;11.600;2023-04-15T07:18:26;21.35;;;11.30;;
26953;SDS011;14508;50.924;11.600;2023-04-15T07:20:53;21.48;;;11.20;;
26953;SDS011;14508;50.924;11.600;2023-04-15T07:23:21;23.38;;;10.93;;
26953;SDS011;14508;50.924;11.600;2023-04-15T07:25:49;24.77;;;11.32;;
26953;SDS011;14508;50.924;11.600;2023-04-15T07:28:19;20.30;;;10.48;;
26953;SDS011;14508;50.924;11.600;2023-04-15T07:30:47;18.48;;;10.02;;
26953;SDS011;14508;50.924;11.600;2023-04-15T07:33:15;20.55;;;10.52;;
26953;SDS011;14508;50.924;11.600;2023-04-15T07:35:43;19.95;;;10.32;;
26953;SDS011;14508;50.924;11.600;2023-04-15T07:38:12;20.35;;;9.98;;
26953;SDS011;14508;50.924;11.600;2023-04-15T07:40:39;16.05;;;8.95;;
26953;SDS011;14508;50.924;11.600;2023-04-15T07:43:07;17.73;;;9.98;;
26953;SDS011;14508;50.924;11.600;2023-04-15T07:45:37;16.23;;;8.95;;
26953;SDS011;14508;50.924;11.600;2023-04-15T07:48:05;18.13;;;8.75;;
26953;SDS011;14508;50.924;11.600;2023-04-15T07:50:33;17.75;;;9.80;;
26953;SDS011;14508;50.924;11.600;2023-04-15T07:53:02;16.77;;;8.88;;
26953;SDS011;14508;50.924;11.600;2023-04-15T07:55:31;12.90;;;7.75;;
26953;SDS011;14508;50.924;11.600;2023-04-15T07:58:02;15.13;;;8.77;;
26953;SDS011;14508;50.924;11.600;2023-04-15T08:00:30;16.98;;;8.45;;
26953;SDS011;14508;50.924;11.600;2023-04-15T08:02:59;17.08;;;9.35;;
26953;SDS011;14508;50.924;11.600;2023-04-15T08:05:28;15.25;;;7.47;;
26953;SDS011;14508;50.924;11.600;2023-04-15T08:07:57;14.50;;;7.78;;
26953;SDS011;14508;50.924;11.600;2023-04-15T08:10:28;16.25;;;8.10;;
26953;SDS011;14508;50.924;11.600;2023-04-15T08:12:57;13.60;;;6.90;;
26953;SDS011;14508;50.924;11.600;2023-04-15T08:15:25;12.77;;;5.78;;
26953;SDS011;14508;50.924;11.600;2023-04-15T08:17:53;10.02;;;5.63;;
26953;SDS011;14508;50.924;11.600;2023-04-15T08:20:22;10.57;;;6.50;;
26953;SDS011;14508;50.924;11.600;2023-04-15T08:22:50;11.25;;;7.05;;
26953;SDS011;14508;50.924;11.600;2023-04-15T08:25:19;11.98;;;6.97;;
26953;SDS011;14508;50.924;11.600;2023-04-15T08:27:47;11.20;;;7.00;;
26953;SDS011;14508;50.924;11.600;2023-04-15T08:30:15;13.90;;;6.30;;
26953;SDS011;14508;50.924;11.600;2023-04-15T08:32:44;12.38;;;7.18;;
26953;SDS011;14508;50.924;11.600;2023-04-15T08:35:12;12.13;;;6.22;;
26953;SDS011;14508;50.924;11.600;2023-04-15T08:37:49;12.60;;;6.75;;
26953;SDS011;14508;50.924;11.600;2023-04-15T08:40:17;9.95;;;6.07;;
26953;SDS011;14508;50.924;11.600;2023-04-15T08:42:46;10.77;;;6.30;;
26953;SDS011;14508;50.924;11.600;2023-04-15T08:45:17;10.75;;;4.97;;
26953;SDS011;14508;50.924;11.600;2023-04-15T08:47:46;11.10;;;6.28;;
26953;SDS011;14508;50.924;11.600;2023-04-15T08:50:19;9.82;;;5.93;;
26953;SDS011;14508;50.924;11.600;2023-04-15T08:52:53;10.65;;;5.50;;
26953;SDS011;14508;50.924;11.600;2023-04-15T08:55:21;10.70;;;5.93;;
26953;SDS011;14508;50.924;11.600;2023-04-15T08:57:50;11.55;;;6.55;;
26953;SDS011;14508;50.924;11.600;2023-04-15T09:00:18;8.75;;;5.20;;
26953;SDS011;14508;50.924;11.600;2023-04-15T09:02:46;6.70;;;4.53;;
26953;SDS011;14508;50.924;11.600;2023-04-15T09:05:14;7.13;;;4.97;;
26953;SDS011;14508;50.924;11.600;2023-04-15T09:07:42;9.05;;;5.70;;
26953;SDS011;14508;50.924;11.600;2023-04-15T09:10:12;11.75;;;6.43;;
26953;SDS011;14508;50.924;11.600;2023-04-15T09:12:40;8.23;;;4.80;;
26953;SDS011;14508;50.924;11.600;2023-04-15T09:15:09;13.00;;;6.10;;
26953;SDS011;14508;50.924;11.600;2023-04-15T09:17:41;9.27;;;4.85;;
26953;SDS011;14508;50.924;11.600;2023-04-15T09:20:10;7.80;;;4.05;;
26953;SDS011;14508;50.924;11.600;2023-04-15T09:22:40;5.80;;;3.85;;
26953;SDS011;14508;50.924;11.600;2023-04-15T09:25:26;6.90;;;3.78;;
26953;SDS011;14508;50.924;11.600;2023-04-15T09:27:59;6.10;;;3.95;;
26953;SDS011;14508;50.924;11.600;2023-04-15T09:30:28;7.43;;;3.75;;
26953;SDS011;14508;50.924;11.600;2023-04-15T09:32:57;6.65;;;3.78;;
26953;SDS011;14508;50.924;11.600;2023-04-15T09:35:27;7.35;;;3.42;;
26953;SDS011;14508;50.924;11.600;2023-04-15T09:38:01;6.53;;;3.95;;
26953;SDS011;14508;50.924;11.600;2023-04-15T09:40:32;11.48;;;5.38;;
26953;SDS011;14508;50.924;11.600;2023-04-15T09:43:01;6.28;;;4.15;;
26953;SDS011;14508;50.924;11.600;2023-04-15T09:45:30;7.95;;;4.50;;
26953;SDS011;14508;50.924;11.600;2023-04-15T09:47:59;8.18;;;4.43;;
26953;SDS011;14508;50.924;11.600;2023-04-15T09:50:42;8.82;;;4.88;;
26953;SDS011;14508;50.924;11.600;2023-04-15T09:53:10;6.93;;;4.20;;
26953;SDS011;14508;50.924;11.600;2023-04-15T09:55:45;3.22;;;2.58;;
26953;SDS011;14508;50.924;11.600;2023-04-15T09:58:20;6.63;;;3.38;;
26953;SDS011;14508;50.924;11.600;2023-04-15T10:00:49;7.30;;;3.97;;
26953;SDS011;14508;50.924;11.600;2023-04-15T10:03:19;7.05;;;3.65;;
26953;SDS011;14508;50.924;11.600;2023-04-15T10:05:48;6.72;;;3.10;;
26953;SDS011;14508;50.924;11.600;2023-04-15T10:08:19;4.38;;;2.83;;
26953;SDS011;14508;50.924;11.600;2023-04-15T10:10:50;3.97;;;2.75;;
26953;SDS011;14508;50.924;11.600;2023-04-15T10:13:18;4.05;;;2.40;;
26953;SDS011;14508;50.924;11.600;2023-04-15T10:15:50;4.65;;;2.28;;
26953;SDS011;14508;50.924;11.600;2023-04-15T10:18:22;3.60;;;2.45;;
26953;SDS011;14508;50.924;11.600;2023-04-15T10:20:52;6.13;;;2.47;;
26953;SDS011;14508;50.924;11.600;2023-04-15T10:23:21;7.88;;;2.13;;
26953;SDS011;14508;50.924;11.600;2023-04-15T10:25:52;4.22;;;2.55;;
26953;SDS011;14508;50.924;11.600;2023-04-15T10:28:21;4.72;;;2.35;;
26953;SDS011;14508;50.924;11.600;2023-04-15T10:30:49;2.75;;;1.90;;
26953;SDS011;14508;50.924;11.600;2023-04-15T10:33:19;4.53;;;2.47;;
26953;SDS011;14508;50.924;11.600;2023-04-15T10:35:50;4.70;;;2.10;;
26953;SDS011;14508;50.924;11.600;2023-04-15T10:38:30;7.03;;;1.90;;
26953;SDS011;14508;50.924;11.600;2023-04-15T10:41:12;3.95;;;1.73;;
26953;SDS011;14508;50.924;11.600;2023-04-15T10:43:49;6.53;;;2.13;;
26953;SDS011;14508;50.924;11.600;2023-04-15T10:46:20;5.80;;;1.92;;
26953;SDS011;14508;50.924;11.600;2023-04-15T10:48:49;5.53;;;2.20;;
26953;SDS011;14508;50.924;11.600;2023-04-15T10:51:28;1.98;;;1.52;;
26953;SDS011;14508;50.924;11.600;2023-04-15T10:53:58;3.30;;;2.00;;
26953;SDS011;14508;50.924;11.600;2023-04-15T10:56:30;4.38;;;2.08;;
26953;SDS011;14508;50.924;11.600;2023-04-15T10:58:58;3.35;;;2.13;;
26953;SDS011;14508;50.924;11.600;2023-04-15T11:07:46;7.05;;;2.17;;
26953;SDS011;14508;50.924;11.600;2023-04-15T11:13:22;4.28;;;2.38;;
26953;SDS011;14508;50.924;11.600;2023-04-15T11:15:54;5.07;;;2.25;;
26953;SDS011;14508;50.924;11.600;2023-04-15T11:18:25;4.88;;;2.70;;
26953;SDS011;14508;50.924;11.600;2023-04-15T11:20:56;6.30;;;3.08;;
26953;SDS011;14508;50.924;11.600;2023-04-15T11:23:29;10.15;;;3.65;;
26953;SDS011;14508;50.924;11.600;2023-04-15T11:26:03;9.40;;;3.33;;
26953;SDS011;14508;50.924;11.600;2023-04-15T11:28:36;4.05;;;2.30;;
26953;SDS011;14508;50.924;11.600;2023-04-15T11:31:06;4.72;;;3.05;;
26953;SDS011;14508;50.924;11.600;2023-04-15T11:33:36;2.42;;;1.40;;
26953;SDS011;14508;50.924;11.600;2023-04-15T11:36:06;2.03;;;1.30;;
26953;SDS011;14508;50.924;11.600;2023-04-15T11:38:34;2.53;;;1.55;;
26953;SDS011;14508;50.924;11.600;2023-04-15T11:41:03;2.75;;;2.00;;
26953;SDS011;14508;50.924;11.600;2023-04-15T11:43:31;3.28;;;2.30;;
26953;SDS011;14508;50.924;11.600;2023-04-15T11:46:02;4.03;;;2.17;;
26953;SDS011;14508;50.924;11.600;2023-04-15T11:48:31;3.72;;;1.83;;
26953;SDS011;14508;50.924;11.600;2023-04-15T11:51:01;4.22;;;2.17;;
26953;SDS011;14508;50.924;11.600;2023-04-15T11:53:37;2.17;;;1.50;;
26953;SDS011;14508;50.924;11.600;2023-04-15T11:56:07;2.50;;;2.05;;
26953;SDS011;14508;50.924;11.600;2023-04-15T11:58:36;1.60;;;1.40;;
26953;SDS011;14508;50.924;11.600;2023-04-15T12:01:06;3.63;;;2.03;;
26953;SDS011;14508;50.924;11.600;2023-04-15T12:03:38;2.78;;;1.90;;
26953;SDS011;14508;50.924;11.600;2023-04-15T12:06:08;3.13;;;1.73;;
26953;SDS011;14508;50.924;11.600;2023-04-15T12:08:49;4.88;;;2.42;;
26953;SDS011;14508;50.924;11.600;2023-04-15T12:11:29;4.03;;;2.70;;
26953;SDS011;14508;50.924;11.600;2023-04-15T12:14:06;4.60;;;3.45;;
26953;SDS011;14508;50.924;11.600;2023-04-15T12:16:41;2.80;;;2.22;;
26953;SDS011;14508;50.924;11.600;2023-04-15T12:19:16;2.97;;;1.60;;
26953;SDS011;14508;50.924;11.600;2023-04-15T12:21:47;2.03;;;1.85;;
26953;SDS011;14508;50.924;11.600;2023-04-15T12:24:18;2.90;;;1.90;;
26953;SDS011;14508;50.924;11.600;2023-04-15T12:26:47;4.43;;;2.03;;
26953;SDS011;14508;50.924;11.600;2023-04-15T12:29:16;1.90;;;1.27;;
26953;SDS011;14508;50.924;11.600;2023-04-15T12:31:50;2.45;;;1.55;;
26953;SDS011;14508;50.924;11.600;2023-04-15T12:34:24;1.90;;;1.40;;
26953;SDS011;14508;50.924;11.600;2023-04-15T12:36:55;6.65;;;2.58;;
26953;SDS011;14508;50.924;11.600;2023-04-15T12:39:24;8.18;;;3.38;;
26953;SDS011;14508;50.924;11.600;2023-04-15T12:41:56;6.38;;;2.13;;
26953;SDS011;14508;50.924;11.600;2023-04-15T12:44:24;8.50;;;3.45;;
26953;SDS011;14508;50.924;11.600;2023-04-15T12:46:54;4.47;;;2.13;;
26953;SDS011;14508;50.924;11.600;2023-04-15T12:49:23;2.35;;;1.38;;
26953;SDS011;14508;50.924;11.600;2023-04-15T12:51:53;3.85;;;2.10;;
26953;SDS011;14508;50.924;11.600;2023-04-15T12:54:21;2.05;;;1.05;;
26953;SDS011;14508;50.924;11.600;2023-04-15T12:56:50;4.30;;;2.80;;
26953;SDS011;14508;50.924;11.600;2023-04-15T12:59:18;4.47;;;2.97;;
26953;SDS011;14508;50.924;11.600;2023-04-15T13:01:47;3.92;;;2.58;;
26953;SDS011;14508;50.924;11.600;2023-04-15T13:04:16;4.38;;;2.25;;
26953;SDS011;14508;50.924;11.600;2023-04-15T13:06:46;3.67;;;2.15;;
26953;SDS011;14508;50.924;11.600;2023-04-15T13:09:14;6.00;;;3.05;;
26953;SDS011;14508;50.924;11.600;2023-04-15T13:11:42;7.30;;;2.85;;
26953;SDS011;14508;50.924;11.600;2023-04-15T13:14:10;2.67;;;1.73;;
26953;SDS011;14508;50.924;11.600;2023-04-15T13:16:38;4.60;;;1.90;;
26953;SDS011;14508;50.924;11.600;2023-04-15T13:19:07;2.10;;;1.20;;
26953;SDS011;14508;50.924;11.600;2023-04-15T13:21:36;2.70;;;1.50;;
26953;SDS011;14508;50.924;11.600;2023-04-15T13:24:04;3.13;;;1.73;;
26953;SDS011;14508;50.924;11.600;2023-04-15T13:26:33;1.70;;;1.00;;
26953;SDS011;14508;50.924;11.600;2023-04-15T13:29:03;2.05;;;1.15;;
26953;SDS011;14508;50.924;11.600;2023-04-15T13:31:33;1.42;;;1.00;;
26953;SDS011;14508;50.924;11.600;2023-04-15T13:34:03;2.08;;;1.38;;
26953;SDS011;14508;50.924;11.600;2023-04-15T13:36:32;1.92;;;1.40;;
26953;SDS011;14508;50.924;11.600;2023-04-15T13:39:01;2.92;;;1.60;;
26953;SDS011;14508;50.924;11.600;2023-04-15T13:41:30;1.35;;;1.05;;
26953;SDS011;14508;50.924;11.600;2023-04-15T13:43:59;2.25;;;1.40;;
26953;SDS011;14508;50.924;11.600;2023-04-15T13:46:27;3.47;;;1.67;;
26953;SDS011;14508;50.924;11.600;2023-04-15T13:48:55;2.47;;;1.48;;
26953;SDS011;14508;50.924;11.600;2023-04-15T13:51:24;1.98;;;1.35;;
26953;SDS011;14508;50.924;11.600;2023-04-15T13:53:52;1.67;;;1.35;;
26953;SDS011;14508;50.924;11.600;2023-04-15T13:56:22;3.50;;;1.40;;
26953;SDS011;14508;50.924;11.600;2023-04-15T13:58:50;2.03;;;1.42;;
26953;SDS011;14508;50.924;11.600;2023-04-15T14:01:20;2.15;;;1.40;;
26953;SDS011;14508;50.924;11.600;2023-04-15T14:03:48;4.55;;;1.85;;
26953;SDS011;14508;50.924;11.600;2023-04-15T14:06:16;2.95;;;1.70;;
26953;SDS011;14508;50.924;11.600;2023-04-15T14:08:44;2.30;;;1.40;;
26953;SDS011;14508;50.924;11.600;2023-04-15T14:11:13;2.58;;;1.63;;
26953;SDS011;14508;50.924;11.600;2023-04-15T14:13:42;2.45;;;1.63;;
26953;SDS011;14508;50.924;11.600;2023-04-15T14:16:10;3.15;;;1.80;;
26953;SDS011;14508;50.924;11.600;2023-04-15T14:18:38;3.35;;;1.98;;
26953;SDS011;14508;50.924;11.600;2023-04-15T14:21:07;2.55;;;1.65;;
26953;SDS011;14508;50.924;11.600;2023-04-15T14:23:35;3.72;;;1.92;;
26953;SDS011;14508;50.924;11.600;2023-04-15T14:26:03;4.07;;;2.15;;
26953;SDS011;14508;50.924;11.600;2023-04-15T14:28:32;4.93;;;2.15;;
26953;SDS011;14508;50.924;11.600;2023-04-15T14:31:02;3.50;;;2.17;;
26953;SDS011;14508;50.924;11.600;2023-04-15T14:33:30;1.83;;;1.38;;
26953;SDS011;14508;50.924;11.600;2023-04-15T14:35:59;2.95;;;1.73;;
26953;SDS011;14508;50.924;11.600;2023-04-15T14:38:27;3.38;;;1.80;;
26953;SDS011;14508;50.924;11.600;2023-04-15T14:40:55;5.32;;;3.00;;
26953;SDS011;14508;50.924;11.600;2023-04-15T14:43:23;4.10;;;2.00;;
26953;SDS011;14508;50.924;11.600;2023-04-15T14:45:51;3.05;;;2.45;;
26953;SDS011;14508;50.924;11.600;2023-04-15T14:48:21;4.75;;;2.08;;
26953;SDS011;14508;50.924;11.600;2023-04-15T14:50:50;4.85;;;2.40;;